sensor_id;sensor_type;location;lat;lon;timestamp;P1;durP1;ratioP1;P2;durP2;ratioP2
42518;SDS011;28147;47.520;18.920;2022-11-20T00:02:21;18.38;;;8.13;;
42518;SDS011;28147;47.520;18.920;2022-11-20T00:04:47;13.70;;;7.05;;
42518;SDS011;28147;47.520;18.920;2022-11-20T00:07:12;14.57;;;7.10;;
42518;SDS011;28147;47.520;18.920;2022-11-20T00:09:37;16.77;;;7.10;;
42518;SDS011;28147;47.520;18.920;2022-11-20T00:12:03;14.82;;;6.43;;
42518;SDS011;28147;47.520;18.920;2022-11-20T00:14:29;14.60;;;7.70;;
42518;SDS011;28147;47.520;18.920;2022-11-20T00:16:54;18.27;;;8.15;;
42518;SDS011;28147;47.520;18.920;2022-11-20T00:19:19;14.63;;;6.70;;
42518;SDS011;28147;47.520;18.920;2022-11-20T00:21:45;15.02;;;7.03;;
42518;SDS011;28147;47.520;18.920;2022-11-20T00:24:10;10.27;;;5.47;;
42518;SDS011;28147;47.520;18.920;2022-11-20T00:26:36;14.65;;;6.50;;
42518;SDS011;28147;47.520;18.920;2022-11-20T00:29:01;17.35;;;8.02;;
42518;SDS011;28147;47.520;18.920;2022-11-20T00:31:28;15.10;;;6.70;;
42518;SDS011;28147;47.520;18.920;2022-11-20T00:33:54;13.45;;;7.03;;
42518;SDS011;28147;47.520;18.920;2022-11-20T00:38:57;15.10;;;7.03;;
42518;SDS011;28147;47.520;18.920;2022-11-20T00:41:23;13.15;;;5.43;;
42518;SDS011;28147;47.520;18.920;2022-11-20T00:43:54;13.15;;;5.68;;
42518;SDS011;28147;47.520;18.920;2022-11-20T00:46:21;14.82;;;6.45;;
42518;SDS011;28147;47.520;18.920;2022-11-20T00:48:48;15.73;;;6.57;;
42518;SDS011;28147;47.520;18.920;2022-11-20T00:51:14;15.98;;;6.70;;
42518;SDS011;28147;47.520;18.920;2022-11-20T00:53:42;13.57;;;6.68;;
42518;SDS011;28147;47.520;18.920;2022-11-20T00:56:12;16.98;;;6.85;;
42518;SDS011;28147;47.520;18.920;2022-11-20T00:58:40;12.80;;;5.63;;
42518;SDS011;28147;47.520;18.920;2022-11-20T01:01:08;14.38;;;6.57;;
42518;SDS011;28147;47.520;18.920;2022-11-20T01:03:35;14.25;;;6.05;;
42518;SDS011;28147;47.520;18.920;2022-11-20T01:06:04;14.45;;;6.40;;
42518;SDS011;28147;47.520;18.920;2022-11-20T01:08:32;15.13;;;6.07;;
42518;SDS011;28147;47.520;18.920;2022-11-20T01:11:00;12.50;;;6.18;;
42518;SDS011;28147;47.520;18.920;2022-11-20T01:13:46;13.75;;;5.70;;
42518;SDS011;28147;47.520;18.920;2022-11-20T01:16:14;14.90;;;6.88;;
42518;SDS011;28147;47.520;18.920;2022-11-20T01:18:42;14.70;;;6.80;;
42518;SDS011;28147;47.520;18.920;2022-11-20T01:21:13;17.23;;;6.85;;
42518;SDS011;28147;47.520;18.920;2022-11-20T01:23:40;15.43;;;6.25;;
42518;SDS011;28147;47.520;18.920;2022-11-20T01:26:09;14.32;;;7.10;;
42518;SDS011;28147;47.520;18.920;2022-11-20T01:28:36;16.08;;;6.60;;
42518;SDS011;28147;47.520;18.920;2022-11-20T01:31:02;16.92;;;7.45;;
42518;SDS011;28147;47.520;18.920;2022-11-20T01:33:39;16.23;;;7.43;;
42518;SDS011;28147;47.520;18.920;2022-11-20T01:36:06;16.45;;;7.88;;
42518;SDS011;28147;47.520;18.920;2022-11-20T01:38:32;16.85;;;7.45;;
42518;SDS011;28147;47.520;18.920;2022-11-20T01:40:58;19.02;;;8.10;;
42518;SDS011;28147;47.520;18.920;2022-11-20T01:43:24;21.27;;;8.15;;
42518;SDS011;28147;47.520;18.920;2022-11-20T01:48:37;15.77;;;7.45;;
42518;SDS011;28147;47.520;18.920;2022-11-20T01:53:43;23.15;;;8.23;;
42518;SDS011;28147;47.520;18.920;2022-11-20T01:56:10;18.35;;;7.47;;
42518;SDS011;28147;47.520;18.920;2022-11-20T01:58:39;19.27;;;8.00;;
42518;SDS011;28147;47.520;18.920;2022-11-20T02:01:09;20.48;;;8.23;;
42518;SDS011;28147;47.520;18.920;2022-11-20T02:03:35;16.95;;;7.38;;
42518;SDS011;28147;47.520;18.920;2022-11-20T02:08:37;17.33;;;7.03;;
42518;SDS011;28147;47.520;18.920;2022-11-20T02:11:03;17.80;;;8.32;;
42518;SDS011;28147;47.520;18.920;2022-11-20T02:13:29;17.83;;;7.80;;
42518;SDS011;28147;47.520;18.920;2022-11-20T02:16:31;19.17;;;7.85;;
42518;SDS011;28147;47.520;18.920;2022-11-20T02:18:59;21.08;;;8.60;;
42518;SDS011;28147;47.520;18.920;2022-11-20T02:24:12;18.25;;;7.43;;
42518;SDS011;28147;47.520;18.920;2022-11-20T02:26:48;17.80;;;7.47;;
42518;SDS011;28147;47.520;18.920;2022-11-20T02:29:18;15.75;;;7.80;;
42518;SDS011;28147;47.520;18.920;2022-11-20T02:31:48;18.23;;;8.20;;
42518;SDS011;28147;47.520;18.920;2022-11-20T02:34:13;17.88;;;7.25;;
42518;SDS011;28147;47.520;18.920;2022-11-20T02:36:39;17.17;;;7.32;;
42518;SDS011;28147;47.520;18.920;2022-11-20T02:39:06;15.00;;;7.07;;
42518;SDS011;28147;47.520;18.920;2022-11-20T02:41:33;18.88;;;7.75;;
42518;SDS011;28147;47.520;18.920;2022-11-20T02:44:00;16.77;;;6.93;;
42518;SDS011;28147;47.520;18.920;2022-11-20T02:46:26;20.38;;;8.15;;
42518;SDS011;28147;47.520;18.920;2022-11-20T02:48:51;17.27;;;7.57;;
42518;SDS011;28147;47.520;18.920;2022-11-20T02:51:17;15.77;;;7.00;;
42518;SDS011;28147;47.520;18.920;2022-11-20T02:53:42;18.92;;;7.35;;
42518;SDS011;28147;47.520;18.920;2022-11-20T02:56:07;16.58;;;7.05;;
42518;SDS011;28147;47.520;18.920;2022-11-20T02:58:33;14.65;;;6.82;;
42518;SDS011;28147;47.520;18.920;2022-11-20T03:00:58;16.10;;;7.88;;
42518;SDS011;28147;47.520;18.920;2022-11-20T03:03:23;15.32;;;7.57;;
42518;SDS011;28147;47.520;18.920;2022-11-20T03:05:49;14.38;;;6.43;;
42518;SDS011;28147;47.520;18.920;2022-11-20T03:08:14;16.80;;;7.35;;
42518;SDS011;28147;47.520;18.920;2022-11-20T03:10:39;19.05;;;7.80;;
42518;SDS011;28147;47.520;18.920;2022-11-20T03:13:05;16.67;;;6.75;;
42518;SDS011;28147;47.520;18.920;2022-11-20T03:15:30;16.00;;;6.93;;
42518;SDS011;28147;47.520;18.920;2022-11-20T03:17:56;19.70;;;7.85;;
42518;SDS011;28147;47.520;18.920;2022-11-20T03:20:21;15.80;;;7.82;;
42518;SDS011;28147;47.520;18.920;2022-11-20T03:22:47;17.60;;;7.95;;
42518;SDS011;28147;47.520;18.920;2022-11-20T03:25:12;12.95;;;6.68;;
42518;SDS011;28147;47.520;18.920;2022-11-20T03:27:38;15.18;;;6.20;;
42518;SDS011;28147;47.520;18.920;2022-11-20T03:30:03;15.32;;;7.55;;
42518;SDS011;28147;47.520;18.920;2022-11-20T03:32:30;17.23;;;7.47;;
42518;SDS011;28147;47.520;18.920;2022-11-20T03:34:56;16.60;;;7.75;;
42518;SDS011;28147;47.520;18.920;2022-11-20T03:37:21;15.30;;;6.55;;
42518;SDS011;28147;47.520;18.920;2022-11-20T03:39:47;19.60;;;7.53;;
42518;SDS011;28147;47.520;18.920;2022-11-20T03:42:12;16.10;;;7.07;;
42518;SDS011;28147;47.520;18.920;2022-11-20T03:44:53;15.68;;;7.07;;
42518;SDS011;28147;47.520;18.920;2022-11-20T03:47:18;18.58;;;8.27;;
42518;SDS011;28147;47.520;18.920;2022-11-20T03:49:43;16.05;;;6.82;;
42518;SDS011;28147;47.520;18.920;2022-11-20T03:52:09;18.92;;;8.20;;
42518;SDS011;28147;47.520;18.920;2022-11-20T03:54:34;16.58;;;6.95;;
42518;SDS011;28147;47.520;18.920;2022-11-20T03:56:59;19.30;;;8.38;;
42518;SDS011;28147;47.520;18.920;2022-11-20T03:59:25;17.10;;;7.57;;
42518;SDS011;28147;47.520;18.920;2022-11-20T04:01:50;16.75;;;7.18;;
42518;SDS011;28147;47.520;18.920;2022-11-20T04:04:16;16.38;;;7.40;;
42518;SDS011;28147;47.520;18.920;2022-11-20T04:06:41;15.93;;;7.28;;
42518;SDS011;28147;47.520;18.920;2022-11-20T04:09:06;14.82;;;7.35;;
42518;SDS011;28147;47.520;18.920;2022-11-20T04:11:33;19.42;;;7.75;;
42518;SDS011;28147;47.520;18.920;2022-11-20T04:16:35;18.08;;;7.50;;
42518;SDS011;28147;47.520;18.920;2022-11-20T04:19:01;17.75;;;7.35;;
42518;SDS011;28147;47.520;18.920;2022-11-20T04:21:29;17.20;;;7.18;;
42518;SDS011;28147;47.520;18.920;2022-11-20T04:23:54;16.80;;;6.97;;
42518;SDS011;28147;47.520;18.920;2022-11-20T04:26:21;17.60;;;7.75;;
42518;SDS011;28147;47.520;18.920;2022-11-20T04:28:47;15.80;;;6.88;;
42518;SDS011;28147;47.520;18.920;2022-11-20T04:31:14;15.93;;;7.57;;
42518;SDS011;28147;47.520;18.920;2022-11-20T04:33:41;15.68;;;6.68;;
42518;SDS011;28147;47.520;18.920;2022-11-20T04:36:07;16.13;;;7.18;;
42518;SDS011;28147;47.520;18.920;2022-11-20T04:38:36;16.30;;;7.82;;
42518;SDS011;28147;47.520;18.920;2022-11-20T04:41:03;14.63;;;6.25;;
42518;SDS011;28147;47.520;18.920;2022-11-20T04:43:31;16.02;;;7.13;;
42518;SDS011;28147;47.520;18.920;2022-11-20T04:45:57;13.52;;;6.65;;
42518;SDS011;28147;47.520;18.920;2022-11-20T04:48:24;14.38;;;6.72;;
42518;SDS011;28147;47.520;18.920;2022-11-20T04:50:51;13.73;;;6.63;;
42518;SDS011;28147;47.520;18.920;2022-11-20T04:53:17;17.38;;;7.38;;
42518;SDS011;28147;47.520;18.920;2022-11-20T04:55:43;13.27;;;6.55;;
42518;SDS011;28147;47.520;18.920;2022-11-20T04:58:09;17.08;;;6.82;;
42518;SDS011;28147;47.520;18.920;2022-11-20T05:00:34;14.25;;;6.53;;
42518;SDS011;28147;47.520;18.920;2022-11-20T05:03:00;15.60;;;7.10;;
42518;SDS011;28147;47.520;18.920;2022-11-20T05:05:25;13.57;;;6.38;;
42518;SDS011;28147;47.520;18.920;2022-11-20T05:07:51;11.60;;;6.00;;
42518;SDS011;28147;47.520;18.920;2022-11-20T05:10:16;12.27;;;6.47;;
42518;SDS011;28147;47.520;18.920;2022-11-20T05:12:42;15.73;;;6.38;;
42518;SDS011;28147;47.520;18.920;2022-11-20T05:15:07;15.10;;;6.28;;
42518;SDS011;28147;47.520;18.920;2022-11-20T05:17:33;16.45;;;7.80;;
42518;SDS011;28147;47.520;18.920;2022-11-20T05:19:58;13.18;;;6.93;;
42518;SDS011;28147;47.520;18.920;2022-11-20T05:22:24;14.77;;;6.82;;
42518;SDS011;28147;47.520;18.920;2022-11-20T05:24:49;12.98;;;6.55;;
42518;SDS011;28147;47.520;18.920;2022-11-20T05:27:15;21.30;;;8.02;;
42518;SDS011;28147;47.520;18.920;2022-11-20T05:29:40;13.35;;;5.72;;
42518;SDS011;28147;47.520;18.920;2022-11-20T05:32:05;12.85;;;6.05;;
42518;SDS011;28147;47.520;18.920;2022-11-20T05:34:33;16.70;;;7.20;;
42518;SDS011;28147;47.520;18.920;2022-11-20T05:36:59;13.10;;;6.72;;
42518;SDS011;28147;47.520;18.920;2022-11-20T05:39:24;14.98;;;7.30;;
42518;SDS011;28147;47.520;18.920;2022-11-20T05:41:50;16.45;;;7.30;;
42518;SDS011;28147;47.520;18.920;2022-11-20T05:44:35;19.40;;;8.38;;
42518;SDS011;28147;47.520;18.920;2022-11-20T05:47:01;22.83;;;8.65;;
42518;SDS011;28147;47.520;18.920;2022-11-20T05:49:26;18.30;;;8.40;;
42518;SDS011;28147;47.520;18.920;2022-11-20T05:51:51;16.23;;;7.63;;
42518;SDS011;28147;47.520;18.920;2022-11-20T05:54:17;18.10;;;7.65;;
42518;SDS011;28147;47.520;18.920;2022-11-20T05:56:42;15.90;;;7.75;;
42518;SDS011;28147;47.520;18.920;2022-11-20T05:59:08;15.40;;;6.97;;
42518;SDS011;28147;47.520;18.920;2022-11-20T06:01:33;15.77;;;6.30;;
42518;SDS011;28147;47.520;18.920;2022-11-20T06:04:01;11.20;;;6.20;;
42518;SDS011;28147;47.520;18.920;2022-11-20T06:06:26;12.25;;;5.88;;
42518;SDS011;28147;47.520;18.920;2022-11-20T06:08:51;11.07;;;6.22;;
42518;SDS011;28147;47.520;18.920;2022-11-20T06:11:17;13.15;;;5.45;;
42518;SDS011;28147;47.520;18.920;2022-11-20T06:13:43;10.93;;;5.97;;
42518;SDS011;28147;47.520;18.920;2022-11-20T06:16:10;10.40;;;5.90;;
42518;SDS011;28147;47.520;18.920;2022-11-20T06:18:36;12.02;;;5.80;;
42518;SDS011;28147;47.520;18.920;2022-11-20T06:23:32;12.93;;;6.10;;
42518;SDS011;28147;47.520;18.920;2022-11-20T06:26:01;11.80;;;5.93;;
42518;SDS011;28147;47.520;18.920;2022-11-20T06:28:33;15.77;;;6.22;;
42518;SDS011;28147;47.520;18.920;2022-11-20T06:30:59;10.85;;;5.75;;
42518;SDS011;28147;47.520;18.920;2022-11-20T06:33:25;16.02;;;6.90;;
42518;SDS011;28147;47.520;18.920;2022-11-20T06:35:50;16.70;;;7.18;;
42518;SDS011;28147;47.520;18.920;2022-11-20T06:38:16;15.18;;;7.10;;
42518;SDS011;28147;47.520;18.920;2022-11-20T06:40:42;13.60;;;7.22;;
42518;SDS011;28147;47.520;18.920;2022-11-20T06:43:11;18.95;;;8.48;;
42518;SDS011;28147;47.520;18.920;2022-11-20T06:45:36;15.77;;;6.85;;
42518;SDS011;28147;47.520;18.920;2022-11-20T06:48:02;15.45;;;7.22;;
42518;SDS011;28147;47.520;18.920;2022-11-20T06:50:28;17.08;;;7.00;;
42518;SDS011;28147;47.520;18.920;2022-11-20T06:52:53;21.20;;;8.32;;
42518;SDS011;28147;47.520;18.920;2022-11-20T06:55:19;13.18;;;7.10;;
42518;SDS011;28147;47.520;18.920;2022-11-20T06:57:45;16.70;;;7.07;;
42518;SDS011;28147;47.520;18.920;2022-11-20T07:00:10;18.77;;;7.85;;
42518;SDS011;28147;47.520;18.920;2022-11-20T07:02:38;14.00;;;7.05;;
42518;SDS011;28147;47.520;18.920;2022-11-20T07:05:04;14.88;;;7.53;;
42518;SDS011;28147;47.520;18.920;2022-11-20T07:07:29;15.60;;;7.78;;
42518;SDS011;28147;47.520;18.920;2022-11-20T07:09:55;18.65;;;8.00;;
42518;SDS011;28147;47.520;18.920;2022-11-20T07:12:20;19.77;;;7.45;;
42518;SDS011;28147;47.520;18.920;2022-11-20T07:14:45;16.73;;;6.93;;
42518;SDS011;28147;47.520;18.920;2022-11-20T07:17:11;16.02;;;6.68;;
42518;SDS011;28147;47.520;18.920;2022-11-20T07:19:37;17.13;;;7.32;;
42518;SDS011;28147;47.520;18.920;2022-11-20T07:22:02;12.40;;;6.15;;
42518;SDS011;28147;47.520;18.920;2022-11-20T07:24:28;13.73;;;6.63;;
42518;SDS011;28147;47.520;18.920;2022-11-20T07:26:53;15.13;;;6.72;;
42518;SDS011;28147;47.520;18.920;2022-11-20T07:29:18;11.80;;;5.22;;
42518;SDS011;28147;47.520;18.920;2022-11-20T07:31:44;17.33;;;6.05;;
42518;SDS011;28147;47.520;18.920;2022-11-20T07:34:09;11.70;;;5.85;;
42518;SDS011;28147;47.520;18.920;2022-11-20T07:36:35;12.98;;;6.28;;
42518;SDS011;28147;47.520;18.920;2022-11-20T07:39:00;12.00;;;5.97;;
42518;SDS011;28147;47.520;18.920;2022-11-20T07:41:25;14.52;;;6.40;;
42518;SDS011;28147;47.520;18.920;2022-11-20T07:43:52;11.32;;;6.13;;
42518;SDS011;28147;47.520;18.920;2022-11-20T07:46:18;12.85;;;6.40;;
42518;SDS011;28147;47.520;18.920;2022-11-20T07:48:43;16.05;;;7.07;;
42518;SDS011;28147;47.520;18.920;2022-11-20T07:51:08;15.32;;;6.50;;
42518;SDS011;28147;47.520;18.920;2022-11-20T07:53:34;20.00;;;8.63;;
42518;SDS011;28147;47.520;18.920;2022-11-20T07:56:00;22.48;;;11.00;;
42518;SDS011;28147;47.520;18.920;2022-11-20T07:58:26;20.42;;;10.70;;
42518;SDS011;28147;47.520;18.920;2022-11-20T08:00:53;24.05;;;11.57;;
42518;SDS011;28147;47.520;18.920;2022-11-20T08:03:19;41.58;;;16.13;;
42518;SDS011;28147;47.520;18.920;2022-11-20T08:05:44;27.05;;;11.75;;
42518;SDS011;28147;47.520;18.920;2022-11-20T08:08:10;17.65;;;8.77;;
42518;SDS011;28147;47.520;18.920;2022-11-20T08:10:35;20.45;;;9.55;;
42518;SDS011;28147;47.520;18.920;2022-11-20T08:13:00;24.95;;;10.60;;
42518;SDS011;28147;47.520;18.920;2022-11-20T08:15:47;18.00;;;8.88;;
42518;SDS011;28147;47.520;18.920;2022-11-20T08:18:15;16.08;;;7.70;;
42518;SDS011;28147;47.520;18.920;2022-11-20T08:20:40;15.00;;;7.00;;
42518;SDS011;28147;47.520;18.920;2022-11-20T08:23:06;13.98;;;6.20;;
42518;SDS011;28147;47.520;18.920;2022-11-20T08:25:33;13.30;;;6.47;;
42518;SDS011;28147;47.520;18.920;2022-11-20T08:28:01;11.27;;;5.63;;
42518;SDS011;28147;47.520;18.920;2022-11-20T08:30:28;12.40;;;5.50;;
42518;SDS011;28147;47.520;18.920;2022-11-20T08:32:54;10.48;;;5.18;;
42518;SDS011;28147;47.520;18.920;2022-11-20T08:35:20;13.23;;;6.05;;
42518;SDS011;28147;47.520;18.920;2022-11-20T08:37:46;11.02;;;5.13;;
42518;SDS011;28147;47.520;18.920;2022-11-20T08:40:12;13.45;;;7.30;;
42518;SDS011;28147;47.520;18.920;2022-11-20T08:42:45;13.98;;;6.68;;
42518;SDS011;28147;47.520;18.920;2022-11-20T08:45:15;13.25;;;6.78;;
42518;SDS011;28147;47.520;18.920;2022-11-20T08:47:41;13.02;;;6.32;;
42518;SDS011;28147;47.520;18.920;2022-11-20T08:50:07;23.05;;;11.63;;
42518;SDS011;28147;47.520;18.920;2022-11-20T08:52:34;11.52;;;5.32;;
42518;SDS011;28147;47.520;18.920;2022-11-20T08:54:59;11.48;;;5.13;;
42518;SDS011;28147;47.520;18.920;2022-11-20T08:57:24;11.40;;;5.93;;
42518;SDS011;28147;47.520;18.920;2022-11-20T08:59:50;12.27;;;4.93;;
42518;SDS011;28147;47.520;18.920;2022-11-20T09:02:15;10.50;;;5.22;;
42518;SDS011;28147;47.520;18.920;2022-11-20T09:04:40;11.48;;;6.13;;
42518;SDS011;28147;47.520;18.920;2022-11-20T09:07:06;10.02;;;4.85;;
42518;SDS011;28147;47.520;18.920;2022-11-20T09:09:31;9.90;;;4.93;;
42518;SDS011;28147;47.520;18.920;2022-11-20T09:11:57;9.40;;;4.88;;
42518;SDS011;28147;47.520;18.920;2022-11-20T09:14:23;10.65;;;5.28;;
42518;SDS011;28147;47.520;18.920;2022-11-20T09:16:54;12.20;;;5.20;;
42518;SDS011;28147;47.520;18.920;2022-11-20T09:19:20;12.15;;;6.03;;
42518;SDS011;28147;47.520;18.920;2022-11-20T09:21:45;11.25;;;6.00;;
42518;SDS011;28147;47.520;18.920;2022-11-20T09:24:10;15.63;;;7.15;;
42518;SDS011;28147;47.520;18.920;2022-11-20T09:26:36;14.02;;;6.68;;
42518;SDS011;28147;47.520;18.920;2022-11-20T09:29:01;11.55;;;5.93;;
42518;SDS011;28147;47.520;18.920;2022-11-20T09:31:27;11.93;;;6.22;;
42518;SDS011;28147;47.520;18.920;2022-11-20T09:33:52;12.75;;;6.00;;
42518;SDS011;28147;47.520;18.920;2022-11-20T09:36:17;12.10;;;6.20;;
42518;SDS011;28147;47.520;18.920;2022-11-20T09:38:46;13.77;;;6.53;;
42518;SDS011;28147;47.520;18.920;2022-11-20T09:46:45;15.45;;;7.20;;
42518;SDS011;28147;47.520;18.920;2022-11-20T09:52:09;15.80;;;7.15;;
42518;SDS011;28147;47.520;18.920;2022-11-20T09:54:56;14.43;;;7.03;;
42518;SDS011;28147;47.520;18.920;2022-11-20T09:57:25;22.27;;;9.25;;
42518;SDS011;28147;47.520;18.920;2022-11-20T09:59:59;17.73;;;8.88;;
42518;SDS011;28147;47.520;18.920;2022-11-20T10:10:26;13.63;;;6.40;;
42518;SDS011;28147;47.520;18.920;2022-11-20T10:13:09;14.73;;;6.82;;
42518;SDS011;28147;47.520;18.920;2022-11-20T10:26:28;14.70;;;7.80;;
42518;SDS011;28147;47.520;18.920;2022-11-20T10:29:09;16.27;;;7.75;;
42518;SDS011;28147;47.520;18.920;2022-11-20T10:31:54;16.67;;;8.25;;
42518;SDS011;28147;47.520;18.920;2022-11-20T10:37:19;15.45;;;7.45;;
42518;SDS011;28147;47.520;18.920;2022-11-20T10:42:37;11.48;;;6.38;;
42518;SDS011;28147;47.520;18.920;2022-11-20T10:45:15;12.57;;;6.90;;
42518;SDS011;28147;47.520;18.920;2022-11-20T10:47:46;12.90;;;6.03;;
42518;SDS011;28147;47.520;18.920;2022-11-20T10:50:14;13.93;;;6.93;;
42518;SDS011;28147;47.520;18.920;2022-11-20T10:55:45;11.65;;;6.05;;
42518;SDS011;28147;47.520;18.920;2022-11-20T11:01:05;17.92;;;7.70;;
42518;SDS011;28147;47.520;18.920;2022-11-20T11:03:38;16.23;;;7.60;;
42518;SDS011;28147;47.520;18.920;2022-11-20T11:06:07;13.88;;;6.28;;
42518;SDS011;28147;47.520;18.920;2022-11-20T11:08:38;17.05;;;7.95;;
42518;SDS011;28147;47.520;18.920;2022-11-20T11:11:46;14.93;;;7.20;;
42518;SDS011;28147;47.520;18.920;2022-11-20T11:14:04;13.17;;;6.00;;
42518;SDS011;28147;47.520;18.920;2022-11-20T11:16:40;14.52;;;6.90;;
42518;SDS011;28147;47.520;18.920;2022-11-20T11:19:15;10.30;;;5.82;;
42518;SDS011;28147;47.520;18.920;2022-11-20T11:21:49;13.13;;;6.78;;
42518;SDS011;28147;47.520;18.920;2022-11-20T11:29:24;13.50;;;6.03;;
42518;SDS011;28147;47.520;18.920;2022-11-20T11:32:02;13.70;;;6.85;;
42518;SDS011;28147;47.520;18.920;2022-11-20T11:34:37;15.00;;;7.72;;
42518;SDS011;28147;47.520;18.920;2022-11-20T11:37:03;15.73;;;8.10;;
42518;SDS011;28147;47.520;18.920;2022-11-20T11:39:30;14.95;;;7.00;;
42518;SDS011;28147;47.520;18.920;2022-11-20T11:41:57;14.55;;;7.95;;
42518;SDS011;28147;47.520;18.920;2022-11-20T11:44:30;16.08;;;8.45;;
42518;SDS011;28147;47.520;18.920;2022-11-20T11:47:26;15.02;;;7.78;;
42518;SDS011;28147;47.520;18.920;2022-11-20T11:56:15;15.20;;;7.95;;
42518;SDS011;28147;47.520;18.920;2022-11-20T11:58:48;14.15;;;7.63;;
42518;SDS011;28147;47.520;18.920;2022-11-20T12:04:04;15.38;;;8.02;;
42518;SDS011;28147;47.520;18.920;2022-11-20T12:06:39;16.47;;;8.57;;
42518;SDS011;28147;47.520;18.920;2022-11-20T12:09:10;15.25;;;7.72;;
42518;SDS011;28147;47.520;18.920;2022-11-20T12:14:34;17.45;;;8.77;;
42518;SDS011;28147;47.520;18.920;2022-11-20T12:17:02;12.32;;;7.25;;
42518;SDS011;28147;47.520;18.920;2022-11-20T12:19:31;14.85;;;7.22;;
42518;SDS011;28147;47.520;18.920;2022-11-20T12:22:07;16.00;;;7.35;;
42518;SDS011;28147;47.520;18.920;2022-11-20T12:24:51;14.93;;;7.45;;
42518;SDS011;28147;47.520;18.920;2022-11-20T12:30:19;13.38;;;6.72;;
42518;SDS011;28147;47.520;18.920;2022-11-20T12:43:45;12.73;;;6.60;;
42518;SDS011;28147;47.520;18.920;2022-11-20T12:46:48;11.68;;;6.03;;
42518;SDS011;28147;47.520;18.920;2022-11-20T12:50:34;14.25;;;6.50;;
42518;SDS011;28147;47.520;18.920;2022-11-20T13:00:43;14.85;;;7.18;;
42518;SDS011;28147;47.520;18.920;2022-11-20T13:03:24;15.40;;;7.68;;
42518;SDS011;28147;47.520;18.920;2022-11-20T13:08:36;15.07;;;7.28;;
42518;SDS011;28147;47.520;18.920;2022-11-20T13:11:14;14.20;;;7.28;;
42518;SDS011;28147;47.520;18.920;2022-11-20T13:19:14;32.22;;;14.13;;
42518;SDS011;28147;47.520;18.920;2022-11-20T13:21:42;18.77;;;9.57;;
42518;SDS011;28147;47.520;18.920;2022-11-20T13:24:21;17.92;;;8.00;;
42518;SDS011;28147;47.520;18.920;2022-11-20T13:29:30;18.65;;;9.70;;
42518;SDS011;28147;47.520;18.920;2022-11-20T13:34:28;20.55;;;9.32;;
42518;SDS011;28147;47.520;18.920;2022-11-20T13:36:54;17.20;;;8.55;;
42518;SDS011;28147;47.520;18.920;2022-11-20T13:39:25;20.42;;;9.02;;
42518;SDS011;28147;47.520;18.920;2022-11-20T13:41:58;20.05;;;8.75;;
42518;SDS011;28147;47.520;18.920;2022-11-20T13:44:39;17.10;;;9.07;;
42518;SDS011;28147;47.520;18.920;2022-11-20T13:47:46;17.25;;;9.25;;
42518;SDS011;28147;47.520;18.920;2022-11-20T13:50:02;19.30;;;9.27;;
42518;SDS011;28147;47.520;18.920;2022-11-20T13:55:59;22.73;;;10.30;;
42518;SDS011;28147;47.520;18.920;2022-11-20T13:58:22;17.33;;;8.35;;
42518;SDS011;28147;47.520;18.920;2022-11-20T14:01:17;17.42;;;8.63;;
42518;SDS011;28147;47.520;18.920;2022-11-20T14:03:44;19.63;;;8.63;;
42518;SDS011;28147;47.520;18.920;2022-11-20T14:06:13;17.60;;;8.68;;
42518;SDS011;28147;47.520;18.920;2022-11-20T14:08:50;15.75;;;7.28;;
42518;SDS011;28147;47.520;18.920;2022-11-20T14:11:20;19.65;;;8.48;;
42518;SDS011;28147;47.520;18.920;2022-11-20T14:13:54;18.92;;;8.77;;
42518;SDS011;28147;47.520;18.920;2022-11-20T14:16:31;17.10;;;8.45;;
42518;SDS011;28147;47.520;18.920;2022-11-20T14:19:17;21.10;;;9.55;;
42518;SDS011;28147;47.520;18.920;2022-11-20T14:24:13;18.73;;;9.50;;
42518;SDS011;28147;47.520;18.920;2022-11-20T14:26:42;20.05;;;9.30;;
42518;SDS011;28147;47.520;18.920;2022-11-20T14:29:19;20.08;;;9.30;;
42518;SDS011;28147;47.520;18.920;2022-11-20T14:31:52;16.63;;;9.05;;
42518;SDS011;28147;47.520;18.920;2022-11-20T14:34:23;21.00;;;10.13;;
42518;SDS011;28147;47.520;18.920;2022-11-20T14:36:53;16.92;;;8.93;;
42518;SDS011;28147;47.520;18.920;2022-11-20T14:40:20;16.48;;;7.78;;
42518;SDS011;28147;47.520;18.920;2022-11-20T14:42:30;17.73;;;8.05;;
42518;SDS011;28147;47.520;18.920;2022-11-20T14:44:56;13.18;;;6.97;;
42518;SDS011;28147;47.520;18.920;2022-11-20T14:47:25;9.73;;;5.28;;
42518;SDS011;28147;47.520;18.920;2022-11-20T14:49:54;11.90;;;5.70;;
42518;SDS011;28147;47.520;18.920;2022-11-20T14:52:25;11.95;;;5.13;;
42518;SDS011;28147;47.520;18.920;2022-11-20T14:54:53;11.35;;;5.30;;
42518;SDS011;28147;47.520;18.920;2022-11-20T14:59:49;11.43;;;5.75;;
42518;SDS011;28147;47.520;18.920;2022-11-20T15:02:14;14.65;;;5.97;;
42518;SDS011;28147;47.520;18.920;2022-11-20T15:04:49;12.95;;;6.60;;
42518;SDS011;28147;47.520;18.920;2022-11-20T15:07:28;12.82;;;6.00;;
42518;SDS011;28147;47.520;18.920;2022-11-20T15:09:59;17.23;;;8.30;;
42518;SDS011;28147;47.520;18.920;2022-11-20T15:12:31;14.65;;;7.20;;
42518;SDS011;28147;47.520;18.920;2022-11-20T15:14:58;17.10;;;7.43;;
42518;SDS011;28147;47.520;18.920;2022-11-20T15:17:26;15.90;;;7.20;;
42518;SDS011;28147;47.520;18.920;2022-11-20T15:19:51;17.92;;;5.90;;
42518;SDS011;28147;47.520;18.920;2022-11-20T15:22:19;15.45;;;7.05;;
42518;SDS011;28147;47.520;18.920;2022-11-20T15:24:44;15.07;;;7.55;;
42518;SDS011;28147;47.520;18.920;2022-11-20T15:27:10;19.38;;;8.50;;
42518;SDS011;28147;47.520;18.920;2022-11-20T15:29:35;19.10;;;8.80;;
42518;SDS011;28147;47.520;18.920;2022-11-20T15:32:01;15.93;;;8.23;;
42518;SDS011;28147;47.520;18.920;2022-11-20T15:34:27;12.93;;;6.10;;
42518;SDS011;28147;47.520;18.920;2022-11-20T15:36:53;13.77;;;6.60;;
42518;SDS011;28147;47.520;18.920;2022-11-20T15:39:19;13.98;;;6.95;;
42518;SDS011;28147;47.520;18.920;2022-11-20T15:41:45;17.40;;;7.70;;
42518;SDS011;28147;47.520;18.920;2022-11-20T15:44:10;15.93;;;7.10;;
42518;SDS011;28147;47.520;18.920;2022-11-20T15:46:37;12.73;;;6.32;;
42518;SDS011;28147;47.520;18.920;2022-11-20T15:49:11;15.90;;;6.88;;
42518;SDS011;28147;47.520;18.920;2022-11-20T15:51:42;13.93;;;6.07;;
42518;SDS011;28147;47.520;18.920;2022-11-20T15:54:15;11.02;;;6.18;;
42518;SDS011;28147;47.520;18.920;2022-11-20T15:56:48;15.10;;;6.45;;
42518;SDS011;28147;47.520;18.920;2022-11-20T15:59:17;11.82;;;6.05;;
42518;SDS011;28147;47.520;18.920;2022-11-20T16:01:42;13.23;;;5.72;;
42518;SDS011;28147;47.520;18.920;2022-11-20T16:04:11;13.52;;;6.00;;
42518;SDS011;28147;47.520;18.920;2022-11-20T16:06:40;9.13;;;4.85;;
42518;SDS011;28147;47.520;18.920;2022-11-20T16:09:06;9.15;;;4.70;;
42518;SDS011;28147;47.520;18.920;2022-11-20T16:11:32;12.23;;;5.30;;
42518;SDS011;28147;47.520;18.920;2022-11-20T16:13:58;10.27;;;4.90;;
42518;SDS011;28147;47.520;18.920;2022-11-20T16:16:41;8.75;;;4.60;;
42518;SDS011;28147;47.520;18.920;2022-11-20T16:19:14;9.63;;;4.25;;
42518;SDS011;28147;47.520;18.920;2022-11-20T16:21:40;9.82;;;4.60;;
42518;SDS011;28147;47.520;18.920;2022-11-20T16:24:07;10.07;;;4.05;;
42518;SDS011;28147;47.520;18.920;2022-11-20T16:26:35;10.75;;;5.00;;
42518;SDS011;28147;47.520;18.920;2022-11-20T16:29:02;10.90;;;5.00;;